sensor_id;sensor_type;location;lat;lon;timestamp;P1;durP1;ratioP1;P2;durP2;ratioP2
41201;SDS011;26936;50.524;8.684;2023-02-15T00:01:08;78.70;;;14.05;;
41201;SDS011;26936;50.524;8.684;2023-02-15T00:03:35;106.50;;;15.40;;
41201;SDS011;26936;50.524;8.684;2023-02-15T00:06:01;168.48;;;17.30;;
41201;SDS011;26936;50.524;8.684;2023-02-15T00:08:26;48.35;;;12.73;;
41201;SDS011;26936;50.524;8.684;2023-02-15T00:10:51;77.90;;;15.13;;
41201;SDS011;26936;50.524;8.684;2023-02-15T00:13:17;121.82;;;16.23;;
41201;SDS011;26936;50.524;8.684;2023-02-15T00:15:42;94.43;;;15.75;;
41201;SDS011;26936;50.524;8.684;2023-02-15T00:18:07;172.67;;;18.63;;
41201;SDS011;26936;50.524;8.684;2023-02-15T00:20:33;142.13;;;19.20;;
41201;SDS011;26936;50.524;8.684;2023-02-15T00:22:58;118.60;;;16.37;;
41201;SDS011;26936;50.524;8.684;2023-02-15T00:25:23;78.15;;;13.93;;
41201;SDS011;26936;50.524;8.684;2023-02-15T00:27:49;83.15;;;12.57;;
41201;SDS011;26936;50.524;8.684;2023-02-15T00:30:14;160.18;;;17.35;;
41201;SDS011;26936;50.524;8.684;2023-02-15T00:32:41;100.20;;;16.77;;
41201;SDS011;26936;50.524;8.684;2023-02-15T00:35:06;145.13;;;19.27;;
41201;SDS011;26936;50.524;8.684;2023-02-15T00:37:32;150.27;;;16.83;;
41201;SDS011;26936;50.524;8.684;2023-02-15T00:39:57;99.93;;;14.98;;
41201;SDS011;26936;50.524;8.684;2023-02-15T00:42:22;186.73;;;19.63;;
41201;SDS011;26936;50.524;8.684;2023-02-15T00:44:48;152.60;;;20.50;;
41201;SDS011;26936;50.524;8.684;2023-02-15T00:47:13;137.88;;;18.33;;
41201;SDS011;26936;50.524;8.684;2023-02-15T00:49:38;127.88;;;15.00;;
41201;SDS011;26936;50.524;8.684;2023-02-15T00:52:03;54.47;;;12.27;;
41201;SDS011;26936;50.524;8.684;2023-02-15T00:54:29;56.27;;;13.83;;
41201;SDS011;26936;50.524;8.684;2023-02-15T00:56:54;177.53;;;17.83;;
41201;SDS011;26936;50.524;8.684;2023-02-15T00:59:19;66.53;;;16.20;;
41201;SDS011;26936;50.524;8.684;2023-02-15T01:01:44;89.22;;;14.88;;
41201;SDS011;26936;50.524;8.684;2023-02-15T01:04:10;83.75;;;15.55;;
41201;SDS011;26936;50.524;8.684;2023-02-15T01:06:35;117.30;;;15.70;;
41201;SDS011;26936;50.524;8.684;2023-02-15T01:09:01;99.75;;;14.85;;
41201;SDS011;26936;50.524;8.684;2023-02-15T01:11:26;133.35;;;15.95;;
41201;SDS011;26936;50.524;8.684;2023-02-15T01:13:53;124.43;;;17.48;;
41201;SDS011;26936;50.524;8.684;2023-02-15T01:16:20;64.95;;;13.73;;
41201;SDS011;26936;50.524;8.684;2023-02-15T01:18:45;94.50;;;16.77;;
41201;SDS011;26936;50.524;8.684;2023-02-15T01:21:12;146.15;;;17.00;;
41201;SDS011;26936;50.524;8.684;2023-02-15T01:23:41;95.75;;;15.50;;
41201;SDS011;26936;50.524;8.684;2023-02-15T01:26:07;89.00;;;16.65;;
41201;SDS011;26936;50.524;8.684;2023-02-15T01:28:33;153.82;;;19.05;;
41201;SDS011;26936;50.524;8.684;2023-02-15T01:30:58;157.32;;;18.70;;
41201;SDS011;26936;50.524;8.684;2023-02-15T01:33:24;115.30;;;16.20;;
41201;SDS011;26936;50.524;8.684;2023-02-15T01:35:55;144.93;;;19.30;;
41201;SDS011;26936;50.524;8.684;2023-02-15T01:38:21;139.77;;;16.65;;
41201;SDS011;26936;50.524;8.684;2023-02-15T01:40:46;135.30;;;17.67;;
41201;SDS011;26936;50.524;8.684;2023-02-15T01:43:15;165.90;;;21.15;;
41201;SDS011;26936;50.524;8.684;2023-02-15T01:45:41;68.50;;;16.67;;
41201;SDS011;26936;50.524;8.684;2023-02-15T01:48:17;81.28;;;18.80;;
41201;SDS011;26936;50.524;8.684;2023-02-15T01:50:50;76.72;;;19.67;;
41201;SDS011;26936;50.524;8.684;2023-02-15T01:53:32;57.55;;;15.52;;
41201;SDS011;26936;50.524;8.684;2023-02-15T01:56:03;127.55;;;20.30;;
41201;SDS011;26936;50.524;8.684;2023-02-15T01:58:33;122.13;;;19.98;;
41201;SDS011;26936;50.524;8.684;2023-02-15T02:01:00;189.95;;;24.50;;
41201;SDS011;26936;50.524;8.684;2023-02-15T02:06:14;59.90;;;15.98;;
41201;SDS011;26936;50.524;8.684;2023-02-15T02:08:40;57.25;;;16.42;;
41201;SDS011;26936;50.524;8.684;2023-02-15T02:11:10;94.15;;;17.90;;
41201;SDS011;26936;50.524;8.684;2023-02-15T02:13:37;107.97;;;17.83;;
41201;SDS011;26936;50.524;8.684;2023-02-15T02:16:15;70.40;;;18.67;;
41201;SDS011;26936;50.524;8.684;2023-02-15T02:27:26;84.80;;;14.98;;
41201;SDS011;26936;50.524;8.684;2023-02-15T02:30:06;142.60;;;20.37;;
41201;SDS011;26936;50.524;8.684;2023-02-15T02:41:48;49.85;;;15.68;;
41201;SDS011;26936;50.524;8.684;2023-02-15T02:46:50;54.22;;;16.38;;
41201;SDS011;26936;50.524;8.684;2023-02-15T02:49:29;44.60;;;15.63;;
41201;SDS011;26936;50.524;8.684;2023-02-15T02:52:01;93.55;;;17.65;;
41201;SDS011;26936;50.524;8.684;2023-02-15T02:54:28;123.50;;;16.88;;
41201;SDS011;26936;50.524;8.684;2023-02-15T02:56:55;107.80;;;17.60;;
41201;SDS011;26936;50.524;8.684;2023-02-15T02:59:25;99.72;;;17.58;;
41201;SDS011;26936;50.524;8.684;2023-02-15T03:04:26;136.43;;;17.52;;
41201;SDS011;26936;50.524;8.684;2023-02-15T03:06:57;135.80;;;21.13;;
41201;SDS011;26936;50.524;8.684;2023-02-15T03:09:27;72.57;;;14.70;;
41201;SDS011;26936;50.524;8.684;2023-02-15T03:12:28;122.22;;;17.20;;
41201;SDS011;26936;50.524;8.684;2023-02-15T03:15:06;125.95;;;21.90;;
41201;SDS011;26936;50.524;8.684;2023-02-15T03:17:34;144.85;;;18.95;;
41201;SDS011;26936;50.524;8.684;2023-02-15T03:20:04;86.32;;;17.77;;
41201;SDS011;26936;50.524;8.684;2023-02-15T03:22:35;148.98;;;19.67;;
41201;SDS011;26936;50.524;8.684;2023-02-15T03:25:20;136.35;;;19.48;;
41201;SDS011;26936;50.524;8.684;2023-02-15T03:28:09;121.38;;;16.92;;
41201;SDS011;26936;50.524;8.684;2023-02-15T03:30:38;62.25;;;15.82;;
41201;SDS011;26936;50.524;8.684;2023-02-15T03:33:07;122.53;;;18.15;;
41201;SDS011;26936;50.524;8.684;2023-02-15T03:36:08;112.63;;;18.38;;
41201;SDS011;26936;50.524;8.684;2023-02-15T03:38:32;102.45;;;19.05;;
41201;SDS011;26936;50.524;8.684;2023-02-15T03:41:01;138.40;;;18.83;;
41201;SDS011;26936;50.524;8.684;2023-02-15T03:43:39;132.00;;;19.15;;
41201;SDS011;26936;50.524;8.684;2023-02-15T03:46:07;196.13;;;24.10;;
41201;SDS011;26936;50.524;8.684;2023-02-15T03:48:53;92.22;;;19.05;;
41201;SDS011;26936;50.524;8.684;2023-02-15T03:51:22;122.13;;;18.77;;
41201;SDS011;26936;50.524;8.684;2023-02-15T03:53:59;137.63;;;20.73;;
41201;SDS011;26936;50.524;8.684;2023-02-15T03:56:27;156.30;;;21.63;;
41201;SDS011;26936;50.524;8.684;2023-02-15T03:58:52;140.02;;;20.75;;
41201;SDS011;26936;50.524;8.684;2023-02-15T04:04:27;153.50;;;18.85;;
41201;SDS011;26936;50.524;8.684;2023-02-15T04:06:56;190.35;;;24.10;;
41201;SDS011;26936;50.524;8.684;2023-02-15T04:09:22;147.18;;;19.55;;
41201;SDS011;26936;50.524;8.684;2023-02-15T04:12:06;164.40;;;19.63;;
41201;SDS011;26936;50.524;8.684;2023-02-15T04:14:31;195.45;;;24.02;;
41201;SDS011;26936;50.524;8.684;2023-02-15T04:17:15;78.65;;;17.75;;
41201;SDS011;26936;50.524;8.684;2023-02-15T04:19:41;174.63;;;23.10;;
41201;SDS011;26936;50.524;8.684;2023-02-15T04:22:24;107.18;;;19.85;;
41201;SDS011;26936;50.524;8.684;2023-02-15T04:25:08;233.50;;;25.98;;
41201;SDS011;26936;50.524;8.684;2023-02-15T04:27:41;221.57;;;31.13;;
41201;SDS011;26936;50.524;8.684;2023-02-15T04:30:08;153.18;;;22.33;;
41201;SDS011;26936;50.524;8.684;2023-02-15T04:32:36;216.70;;;24.38;;
41201;SDS011;26936;50.524;8.684;2023-02-15T04:35:02;100.63;;;19.42;;
41201;SDS011;26936;50.524;8.684;2023-02-15T04:37:28;171.38;;;22.65;;
41201;SDS011;26936;50.524;8.684;2023-02-15T04:39:54;174.57;;;25.20;;
41201;SDS011;26936;50.524;8.684;2023-02-15T04:42:19;156.15;;;22.52;;
41201;SDS011;26936;50.524;8.684;2023-02-15T04:44:44;167.85;;;22.00;;
41201;SDS011;26936;50.524;8.684;2023-02-15T04:47:10;93.32;;;20.85;;
41201;SDS011;26936;50.524;8.684;2023-02-15T04:49:35;154.77;;;23.83;;
41201;SDS011;26936;50.524;8.684;2023-02-15T04:52:00;168.40;;;23.40;;
41201;SDS011;26936;50.524;8.684;2023-02-15T04:54:25;126.40;;;21.33;;
41201;SDS011;26936;50.524;8.684;2023-02-15T04:56:51;177.10;;;25.38;;
41201;SDS011;26936;50.524;8.684;2023-02-15T04:59:16;198.90;;;25.70;;
41201;SDS011;26936;50.524;8.684;2023-02-15T05:01:41;233.70;;;28.85;;
41201;SDS011;26936;50.524;8.684;2023-02-15T05:04:06;222.20;;;30.92;;
41201;SDS011;26936;50.524;8.684;2023-02-15T05:06:32;129.18;;;20.50;;
41201;SDS011;26936;50.524;8.684;2023-02-15T05:08:57;137.15;;;22.40;;
41201;SDS011;26936;50.524;8.684;2023-02-15T05:11:24;171.02;;;23.58;;
41201;SDS011;26936;50.524;8.684;2023-02-15T05:13:49;163.85;;;23.35;;
41201;SDS011;26936;50.524;8.684;2023-02-15T05:16:15;213.85;;;27.80;;
41201;SDS011;26936;50.524;8.684;2023-02-15T05:18:40;162.37;;;23.73;;
41201;SDS011;26936;50.524;8.684;2023-02-15T05:21:05;191.52;;;25.90;;
41201;SDS011;26936;50.524;8.684;2023-02-15T05:23:30;110.93;;;20.50;;
41201;SDS011;26936;50.524;8.684;2023-02-15T05:25:56;226.68;;;27.83;;
41201;SDS011;26936;50.524;8.684;2023-02-15T05:28:40;288.95;;;30.50;;
41201;SDS011;26936;50.524;8.684;2023-02-15T05:31:12;147.68;;;23.08;;
41201;SDS011;26936;50.524;8.684;2023-02-15T05:33:46;192.02;;;23.35;;
41201;SDS011;26936;50.524;8.684;2023-02-15T05:36:12;178.50;;;22.95;;
41201;SDS011;26936;50.524;8.684;2023-02-15T05:38:37;170.02;;;27.45;;
41201;SDS011;26936;50.524;8.684;2023-02-15T05:41:04;176.38;;;23.20;;
41201;SDS011;26936;50.524;8.684;2023-02-15T05:43:30;118.30;;;22.05;;
41201;SDS011;26936;50.524;8.684;2023-02-15T05:45:55;171.27;;;23.95;;
41201;SDS011;26936;50.524;8.684;2023-02-15T05:48:21;224.68;;;26.60;;
41201;SDS011;26936;50.524;8.684;2023-02-15T05:51:05;291.40;;;30.50;;
41201;SDS011;26936;50.524;8.684;2023-02-15T05:53:37;121.97;;;25.10;;
41201;SDS011;26936;50.524;8.684;2023-02-15T05:56:04;114.93;;;20.90;;
41201;SDS011;26936;50.524;8.684;2023-02-15T05:58:34;121.40;;;24.17;;
41201;SDS011;26936;50.524;8.684;2023-02-15T06:01:12;167.02;;;24.98;;
41201;SDS011;26936;50.524;8.684;2023-02-15T06:03:39;187.65;;;26.33;;
41201;SDS011;26936;50.524;8.684;2023-02-15T06:06:05;126.72;;;24.33;;
41201;SDS011;26936;50.524;8.684;2023-02-15T06:08:31;150.50;;;25.88;;
41201;SDS011;26936;50.524;8.684;2023-02-15T06:10:57;150.35;;;24.83;;
41201;SDS011;26936;50.524;8.684;2023-02-15T06:13:22;187.30;;;24.83;;
41201;SDS011;26936;50.524;8.684;2023-02-15T06:15:47;187.57;;;25.77;;
41201;SDS011;26936;50.524;8.684;2023-02-15T06:18:13;253.60;;;29.60;;
41201;SDS011;26936;50.524;8.684;2023-02-15T06:20:38;213.05;;;27.55;;
41201;SDS011;26936;50.524;8.684;2023-02-15T06:23:03;265.17;;;31.90;;
41201;SDS011;26936;50.524;8.684;2023-02-15T06:25:28;157.77;;;26.75;;
41201;SDS011;26936;50.524;8.684;2023-02-15T06:27:54;192.40;;;24.55;;
41201;SDS011;26936;50.524;8.684;2023-02-15T06:30:19;149.87;;;23.50;;
41201;SDS011;26936;50.524;8.684;2023-02-15T06:32:44;185.85;;;27.98;;
41201;SDS011;26936;50.524;8.684;2023-02-15T06:35:10;173.23;;;27.27;;
41201;SDS011;26936;50.524;8.684;2023-02-15T06:37:35;191.05;;;29.00;;
41201;SDS011;26936;50.524;8.684;2023-02-15T06:40:01;191.43;;;25.80;;
41201;SDS011;26936;50.524;8.684;2023-02-15T06:42:26;135.67;;;24.40;;
41201;SDS011;26936;50.524;8.684;2023-02-15T06:44:51;222.70;;;27.40;;
41201;SDS011;26936;50.524;8.684;2023-02-15T06:47:16;135.25;;;26.13;;
41201;SDS011;26936;50.524;8.684;2023-02-15T06:49:42;153.30;;;25.67;;
41201;SDS011;26936;50.524;8.684;2023-02-15T06:52:07;156.02;;;25.30;;
41201;SDS011;26936;50.524;8.684;2023-02-15T06:54:32;155.83;;;26.83;;
41201;SDS011;26936;50.524;8.684;2023-02-15T06:56:57;101.53;;;22.27;;
41201;SDS011;26936;50.524;8.684;2023-02-15T06:59:23;199.30;;;31.17;;
41201;SDS011;26936;50.524;8.684;2023-02-15T07:01:48;157.67;;;26.17;;
41201;SDS011;26936;50.524;8.684;2023-02-15T07:04:14;190.15;;;27.17;;
41201;SDS011;26936;50.524;8.684;2023-02-15T07:06:39;192.57;;;27.70;;
41201;SDS011;26936;50.524;8.684;2023-02-15T07:09:05;173.30;;;28.98;;
41201;SDS011;26936;50.524;8.684;2023-02-15T07:11:30;212.13;;;28.45;;
41201;SDS011;26936;50.524;8.684;2023-02-15T07:14:14;178.00;;;27.75;;
41201;SDS011;26936;50.524;8.684;2023-02-15T07:16:40;131.05;;;25.55;;
41201;SDS011;26936;50.524;8.684;2023-02-15T07:19:05;164.87;;;27.20;;
41201;SDS011;26936;50.524;8.684;2023-02-15T07:21:32;180.98;;;27.98;;
41201;SDS011;26936;50.524;8.684;2023-02-15T07:23:57;116.82;;;25.80;;
41201;SDS011;26936;50.524;8.684;2023-02-15T07:26:23;134.88;;;28.88;;
41201;SDS011;26936;50.524;8.684;2023-02-15T07:28:49;152.10;;;29.40;;
41201;SDS011;26936;50.524;8.684;2023-02-15T07:31:14;151.98;;;29.40;;
41201;SDS011;26936;50.524;8.684;2023-02-15T07:33:39;144.73;;;27.73;;
41201;SDS011;26936;50.524;8.684;2023-02-15T07:36:05;135.40;;;26.33;;
41201;SDS011;26936;50.524;8.684;2023-02-15T07:38:38;109.57;;;27.05;;
41201;SDS011;26936;50.524;8.684;2023-02-15T07:41:09;126.50;;;26.70;;
41201;SDS011;26936;50.524;8.684;2023-02-15T07:43:37;131.75;;;27.20;;
41201;SDS011;26936;50.524;8.684;2023-02-15T07:46:06;151.68;;;28.15;;
41201;SDS011;26936;50.524;8.684;2023-02-15T07:48:34;135.13;;;26.08;;
41201;SDS011;26936;50.524;8.684;2023-02-15T07:51:01;170.43;;;31.25;;
41201;SDS011;26936;50.524;8.684;2023-02-15T07:53:29;155.23;;;26.80;;
41201;SDS011;26936;50.524;8.684;2023-02-15T07:55:57;154.15;;;31.00;;
41201;SDS011;26936;50.524;8.684;2023-02-15T07:58:23;165.00;;;28.52;;
41201;SDS011;26936;50.524;8.684;2023-02-15T08:01:09;134.45;;;25.33;;
41201;SDS011;26936;50.524;8.684;2023-02-15T08:03:34;119.95;;;23.88;;
41201;SDS011;26936;50.524;8.684;2023-02-15T08:05:59;147.07;;;30.10;;
41201;SDS011;26936;50.524;8.684;2023-02-15T08:08:25;113.55;;;24.92;;
41201;SDS011;26936;50.524;8.684;2023-02-15T08:10:58;130.30;;;25.40;;
41201;SDS011;26936;50.524;8.684;2023-02-15T08:14:10;108.20;;;24.63;;
41201;SDS011;26936;50.524;8.684;2023-02-15T08:19:09;185.50;;;28.77;;
41201;SDS011;26936;50.524;8.684;2023-02-15T08:21:38;149.23;;;27.30;;
41201;SDS011;26936;50.524;8.684;2023-02-15T08:24:06;168.38;;;27.65;;
41201;SDS011;26936;50.524;8.684;2023-02-15T08:26:33;132.70;;;25.92;;
41201;SDS011;26936;50.524;8.684;2023-02-15T08:28:59;120.72;;;27.25;;
41201;SDS011;26936;50.524;8.684;2023-02-15T08:31:26;128.40;;;25.10;;
41201;SDS011;26936;50.524;8.684;2023-02-15T08:33:52;164.82;;;28.98;;
41201;SDS011;26936;50.524;8.684;2023-02-15T08:36:20;136.65;;;28.58;;
41201;SDS011;26936;50.524;8.684;2023-02-15T08:38:46;131.95;;;28.98;;
41201;SDS011;26936;50.524;8.684;2023-02-15T08:41:19;187.32;;;32.92;;
41201;SDS011;26936;50.524;8.684;2023-02-15T08:43:46;155.38;;;30.38;;
41201;SDS011;26936;50.524;8.684;2023-02-15T08:46:14;107.20;;;27.58;;
41201;SDS011;26936;50.524;8.684;2023-02-15T08:48:40;159.43;;;30.58;;
41201;SDS011;26936;50.524;8.684;2023-02-15T08:51:16;162.15;;;31.85;;
41201;SDS011;26936;50.524;8.684;2023-02-15T08:53:44;100.00;;;26.85;;
41201;SDS011;26936;50.524;8.684;2023-02-15T08:56:14;121.88;;;26.92;;
41201;SDS011;26936;50.524;8.684;2023-02-15T08:58:40;190.45;;;34.05;;
41201;SDS011;26936;50.524;8.684;2023-02-15T09:01:09;207.75;;;30.10;;
41201;SDS011;26936;50.524;8.684;2023-02-15T09:03:42;139.68;;;28.83;;
41201;SDS011;26936;50.524;8.684;2023-02-15T09:06:09;142.23;;;26.92;;
41201;SDS011;26936;50.524;8.684;2023-02-15T09:08:34;145.48;;;28.10;;
41201;SDS011;26936;50.524;8.684;2023-02-15T09:11:10;112.47;;;26.33;;
41201;SDS011;26936;50.524;8.684;2023-02-15T09:13:37;141.50;;;27.50;;
41201;SDS011;26936;50.524;8.684;2023-02-15T09:16:04;226.80;;;33.85;;
41201;SDS011;26936;50.524;8.684;2023-02-15T09:18:32;248.32;;;34.70;;
41201;SDS011;26936;50.524;8.684;2023-02-15T09:21:08;164.40;;;29.67;;
41201;SDS011;26936;50.524;8.684;2023-02-15T09:23:35;192.32;;;31.20;;
41201;SDS011;26936;50.524;8.684;2023-02-15T09:26:01;111.45;;;29.13;;
41201;SDS011;26936;50.524;8.684;2023-02-15T09:28:28;163.95;;;29.98;;
41201;SDS011;26936;50.524;8.684;2023-02-15T09:30:53;117.03;;;25.67;;
41201;SDS011;26936;50.524;8.684;2023-02-15T09:33:18;127.33;;;26.93;;
41201;SDS011;26936;50.524;8.684;2023-02-15T09:35:44;117.20;;;29.90;;
41201;SDS011;26936;50.524;8.684;2023-02-15T09:38:09;102.33;;;26.17;;
41201;SDS011;26936;50.524;8.684;2023-02-15T09:40:38;130.38;;;30.27;;
41201;SDS011;26936;50.524;8.684;2023-02-15T09:43:21;136.10;;;27.33;;
41201;SDS011;26936;50.524;8.684;2023-02-15T09:46:09;92.35;;;25.95;;
41201;SDS011;26936;50.524;8.684;2023-02-15T09:49:02;102.93;;;24.98;;
41201;SDS011;26936;50.524;8.684;2023-02-15T09:51:44;119.15;;;25.92;;
41201;SDS011;26936;50.524;8.684;2023-02-15T09:54:27;89.78;;;26.75;;
41201;SDS011;26936;50.524;8.684;2023-02-15T09:57:27;119.70;;;26.02;;
41201;SDS011;26936;50.524;8.684;2023-02-15T10:03:13;130.63;;;26.85;;
41201;SDS011;26936;50.524;8.684;2023-02-15T10:06:23;92.78;;;25.83;;
41201;SDS011;26936;50.524;8.684;2023-02-15T10:09:07;98.97;;;27.27;;
41201;SDS011;26936;50.524;8.684;2023-02-15T10:31:08;82.55;;;24.45;;
41201;SDS011;26936;50.524;8.684;2023-02-15T10:33:46;89.13;;;25.08;;
41201;SDS011;26936;50.524;8.684;2023-02-15T10:39:08;110.88;;;25.52;;
41201;SDS011;26936;50.524;8.684;2023-02-15T10:49:58;89.43;;;23.15;;
41201;SDS011;26936;50.524;8.684;2023-02-15T11:06:17;83.38;;;23.75;;
41201;SDS011;26936;50.524;8.684;2023-02-15T11:08:55;75.05;;;21.10;;
41201;SDS011;26936;50.524;8.684;2023-02-15T11:11:27;86.70;;;21.98;;
41201;SDS011;26936;50.524;8.684;2023-02-15T11:13:59;63.90;;;19.23;;
41201;SDS011;26936;50.524;8.684;2023-02-15T11:16:38;59.83;;;20.33;;
41201;SDS011;26936;50.524;8.684;2023-02-15T11:19:11;66.72;;;21.27;;
41201;SDS011;26936;50.524;8.684;2023-02-15T11:21:43;54.72;;;20.33;;
41201;SDS011;26936;50.524;8.684;2023-02-15T11:24:12;48.60;;;19.50;;
41201;SDS011;26936;50.524;8.684;2023-02-15T11:29:20;54.92;;;20.20;;
41201;SDS011;26936;50.524;8.684;2023-02-15T11:31:49;54.95;;;22.10;;
41201;SDS011;26936;50.524;8.684;2023-02-15T11:34:38;54.30;;;20.88;;
41201;SDS011;26936;50.524;8.684;2023-02-15T11:37:15;51.00;;;20.25;;
41201;SDS011;26936;50.524;8.684;2023-02-15T11:39:44;48.38;;;18.80;;
41201;SDS011;26936;50.524;8.684;2023-02-15T11:42:16;50.42;;;19.58;;
41201;SDS011;26936;50.524;8.684;2023-02-15T11:47:17;50.40;;;18.38;;
41201;SDS011;26936;50.524;8.684;2023-02-15T11:49:42;47.25;;;19.73;;
41201;SDS011;26936;50.524;8.684;2023-02-15T11:52:11;50.97;;;19.73;;
41201;SDS011;26936;50.524;8.684;2023-02-15T11:54:41;52.42;;;20.33;;
41201;SDS011;26936;50.524;8.684;2023-02-15T11:59:56;51.83;;;20.98;;
41201;SDS011;26936;50.524;8.684;2023-02-15T12:02:28;50.28;;;20.33;;
41201;SDS011;26936;50.524;8.684;2023-02-15T12:04:58;51.50;;;21.95;;
41201;SDS011;26936;50.524;8.684;2023-02-15T12:10:17;48.08;;;19.33;;
41201;SDS011;26936;50.524;8.684;2023-02-15T12:12:49;50.00;;;20.43;;
41201;SDS011;26936;50.524;8.684;2023-02-15T12:15:35;46.92;;;19.55;;
41201;SDS011;26936;50.524;8.684;2023-02-15T12:18:01;46.00;;;20.35;;
41201;SDS011;26936;50.524;8.684;2023-02-15T12:20:33;50.60;;;20.40;;
41201;SDS011;26936;50.524;8.684;2023-02-15T12:23:03;45.20;;;18.77;;
41201;SDS011;26936;50.524;8.684;2023-02-15T12:25:41;49.20;;;21.30;;
41201;SDS011;26936;50.524;8.684;2023-02-15T12:28:40;47.25;;;20.30;;
41201;SDS011;26936;50.524;8.684;2023-02-15T12:31:30;50.20;;;21.23;;
41201;SDS011;26936;50.524;8.684;2023-02-15T12:33:59;48.72;;;20.98;;
41201;SDS011;26936;50.524;8.684;2023-02-15T12:36:31;57.65;;;22.02;;
41201;SDS011;26936;50.524;8.684;2023-02-15T12:41:37;55.10;;;23.35;;
41201;SDS011;26936;50.524;8.684;2023-02-15T12:44:23;51.97;;;21.95;;
41201;SDS011;26936;50.524;8.684;2023-02-15T12:47:02;49.22;;;21.95;;
41201;SDS011;26936;50.524;8.684;2023-02-15T12:49:30;62.15;;;21.45;;
41201;SDS011;26936;50.524;8.684;2023-02-15T12:51:59;56.70;;;22.42;;
41201;SDS011;26936;50.524;8.684;2023-02-15T12:54:38;57.88;;;23.77;;
41201;SDS011;26936;50.524;8.684;2023-02-15T13:00:26;55.03;;;22.73;;
41201;SDS011;26936;50.524;8.684;2023-02-15T13:02:44;57.25;;;22.65;;
41201;SDS011;26936;50.524;8.684;2023-02-15T13:05:19;51.88;;;21.92;;
41201;SDS011;26936;50.524;8.684;2023-02-15T13:08:03;51.63;;;21.92;;
41201;SDS011;26936;50.524;8.684;2023-02-15T13:10:37;56.20;;;22.90;;
41201;SDS011;26936;50.524;8.684;2023-02-15T13:13:09;53.78;;;23.35;;
41201;SDS011;26936;50.524;8.684;2023-02-15T13:15:36;57.00;;;23.50;;
41201;SDS011;26936;50.524;8.684;2023-02-15T13:18:05;59.17;;;24.13;;
41201;SDS011;26936;50.524;8.684;2023-02-15T13:20:39;59.97;;;25.33;;
41201;SDS011;26936;50.524;8.684;2023-02-15T13:23:11;58.10;;;23.38;;
41201;SDS011;26936;50.524;8.684;2023-02-15T13:25:47;59.22;;;25.33;;
41201;SDS011;26936;50.524;8.684;2023-02-15T13:28:15;57.97;;;24.33;;
41201;SDS011;26936;50.524;8.684;2023-02-15T13:30:45;54.97;;;22.95;;
41201;SDS011;26936;50.524;8.684;2023-02-15T13:33:16;61.35;;;24.45;;
41201;SDS011;26936;50.524;8.684;2023-02-15T13:35:56;55.60;;;23.17;;
41201;SDS011;26936;50.524;8.684;2023-02-15T13:41:27;52.15;;;22.42;;
41201;SDS011;26936;50.524;8.684;2023-02-15T13:46:52;54.67;;;22.67;;
41201;SDS011;26936;50.524;8.684;2023-02-15T13:52:18;51.33;;;22.27;;
41201;SDS011;26936;50.524;8.684;2023-02-15T13:54:53;60.17;;;24.50;;
41201;SDS011;26936;50.524;8.684;2023-02-15T14:02:46;56.72;;;24.33;;
41201;SDS011;26936;50.524;8.684;2023-02-15T14:08:11;57.03;;;24.88;;
41201;SDS011;26936;50.524;8.684;2023-02-15T14:10:47;50.78;;;21.95;;
41201;SDS011;26936;50.524;8.684;2023-02-15T14:16:17;58.15;;;24.70;;
41201;SDS011;26936;50.524;8.684;2023-02-15T14:18:46;58.50;;;24.58;;
41201;SDS011;26936;50.524;8.684;2023-02-15T14:21:27;56.25;;;24.60;;
41201;SDS011;26936;50.524;8.684;2023-02-15T14:24:08;55.38;;;25.40;;
41201;SDS011;26936;50.524;8.684;2023-02-15T14:27:08;51.58;;;24.23;;
41201;SDS011;26936;50.524;8.684;2023-02-15T14:29:51;57.42;;;24.60;;
41201;SDS011;26936;50.524;8.684;2023-02-15T14:32:35;64.50;;;26.00;;
41201;SDS011;26936;50.524;8.684;2023-02-15T14:35:05;56.95;;;24.95;;
41201;SDS011;26936;50.524;8.684;2023-02-15T14:37:44;57.80;;;25.33;;
41201;SDS011;26936;50.524;8.684;2023-02-15T14:40:19;61.90;;;25.30;;
41201;SDS011;26936;50.524;8.684;2023-02-15T14:48:48;63.53;;;26.02;;
41201;SDS011;26936;50.524;8.684;2023-02-15T14:54:09;54.20;;;24.67;;
41201;SDS011;26936;50.524;8.684;2023-02-15T14:56:35;60.80;;;25.00;;
41201;SDS011;26936;50.524;8.684;2023-02-15T15:01:38;65.60;;;26.98;;
41201;SDS011;26936;50.524;8.684;2023-02-15T15:07:09;59.50;;;26.55;;
41201;SDS011;26936;50.524;8.684;2023-02-15T15:09:38;61.08;;;26.30;;
41201;SDS011;26936;50.524;8.684;2023-02-15T15:14:47;64.85;;;25.13;;
41201;SDS011;26936;50.524;8.684;2023-02-15T15:20:00;67.75;;;26.88;;
41201;SDS011;26936;50.524;8.684;2023-02-15T15:22:28;62.40;;;25.67;;
41201;SDS011;26936;50.524;8.684;2023-02-15T15:24:56;70.70;;;26.80;;
41201;SDS011;26936;50.524;8.684;2023-02-15T15:35:34;60.67;;;26.38;;
41201;SDS011;26936;50.524;8.684;2023-02-15T15:41:18;63.15;;;26.38;;
41201;SDS011;26936;50.524;8.684;2023-02-15T15:49:48;72.32;;;27.40;;
41201;SDS011;26936;50.524;8.684;2023-02-15T15:52:18;63.95;;;26.73;;
41201;SDS011;26936;50.524;8.684;2023-02-15T15:54:45;66.03;;;27.23;;
41201;SDS011;26936;50.524;8.684;2023-02-15T15:57:23;64.40;;;28.50;;
41201;SDS011;26936;50.524;8.684;2023-02-15T15:59:54;70.90;;;27.77;;
41201;SDS011;26936;50.524;8.684;2023-02-15T16:02:21;68.95;;;27.88;;
41201;SDS011;26936;50.524;8.684;2023-02-15T16:04:48;72.65;;;28.92;;
41201;SDS011;26936;50.524;8.684;2023-02-15T16:09:41;70.93;;;28.13;;
41201;SDS011;26936;50.524;8.684;2023-02-15T16:12:18;66.45;;;26.67;;
41201;SDS011;26936;50.524;8.684;2023-02-15T16:14:44;75.20;;;27.92;;
41201;SDS011;26936;50.524;8.684;2023-02-15T16:17:17;69.43;;;27.23;;
41201;SDS011;26936;50.524;8.684;2023-02-15T16:19:47;72.80;;;29.48;;
41201;SDS011;26936;50.524;8.684;2023-02-15T16:22:15;67.97;;;29.23;;
41201;SDS011;26936;50.524;8.684;2023-02-15T16:24:51;70.72;;;27.42;;
41201;SDS011;26936;50.524;8.684;2023-02-15T16:27:39;74.93;;;27.10;;
41201;SDS011;26936;50.524;8.684;2023-02-15T16:30:19;77.53;;;29.50;;
41201;SDS011;26936;50.524;8.684;2023-02-15T16:32:47;75.32;;;27.85;;
41201;SDS011;26936;50.524;8.684;2023-02-15T16:35:14;75.88;;;28.48;;
41201;SDS011;26936;50.524;8.684;2023-02-15T16:37:41;84.32;;;29.45;;
41201;SDS011;26936;50.524;8.684;2023-02-15T16:40:14;82.50;;;31.73;;
41201;SDS011;26936;50.524;8.684;2023-02-15T16:42:57;77.15;;;30.13;;
41201;SDS011;26936;50.524;8.684;2023-02-15T16:45:27;83.20;;;29.67;;
41201;SDS011;26936;50.524;8.684;2023-02-15T16:47:56;87.40;;;31.65;;
41201;SDS011;26936;50.524;8.684;2023-02-15T16:50:27;90.55;;;31.30;;
41201;SDS011;26936;50.524;8.684;2023-02-15T16:52:56;83.53;;;30.13;;
41201;SDS011;26936;50.524;8.684;2023-02-15T16:55:23;88.25;;;31.90;;
41201;SDS011;26936;50.524;8.684;2023-02-15T16:57:50;92.07;;;32.03;;
41201;SDS011;26936;50.524;8.684;2023-02-15T17:00:30;89.35;;;31.10;;
41201;SDS011;26936;50.524;8.684;2023-02-15T17:03:00;82.30;;;31.10;;
41201;SDS011;26936;50.524;8.684;2023-02-15T17:05:31;89.22;;;31.48;;
41201;SDS011;26936;50.524;8.684;2023-02-15T17:08:19;86.07;;;30.38;;